createdAt,value
2016-07-22T00:00:20.145Z,23.68
2016-07-22T00:01:20.175Z,23.63
2016-07-22T00:02:20.207Z,23.71
2016-07-22T00:03:20.302Z,23.71
2016-07-22T00:04:20.305Z,23.74
2016-07-22T00:05:20.292Z,23.58
2016-07-22T00:06:21.051Z,23.65
2016-07-22T00:07:21.067Z,23.61
2016-07-22T00:08:20.534Z,23.59
2016-07-22T00:09:20.523Z,23.62
2016-07-22T00:10:21.155Z,23.58
2016-07-22T00:11:21.190Z,23.59
2016-07-22T00:12:20.508Z,23.63
2016-07-22T00:13:20.541Z,23.61
2016-07-22T00:14:20.571Z,23.61
2016-07-22T00:15:20.603Z,23.66
2016-07-22T00:16:20.636Z,23.55
2016-07-22T00:17:21.368Z,23.65
2016-07-22T00:18:20.700Z,23.54
2016-07-22T00:19:20.722Z,23.62
2016-07-22T00:20:20.753Z,23.63
2016-07-22T00:21:20.780Z,23.61
2016-07-22T00:22:20.808Z,23.65
2016-07-22T00:23:20.847Z,23.61
2016-07-22T00:24:21.073Z,23.65
2016-07-22T00:25:20.897Z,23.65
2016-07-22T00:26:20.932Z,23.66
2016-07-22T00:27:20.961Z,23.59
2016-07-22T00:28:20.991Z,23.63
2016-07-22T00:29:21.746Z,23.58
2016-07-22T00:30:21.052Z,23.61
2016-07-22T00:31:21.099Z,23.56
2016-07-22T00:32:22.532Z,23.56
2016-07-22T00:33:21.140Z,23.55
2016-07-22T00:34:21.171Z,23.56
2016-07-22T00:35:21.203Z,23.62
2016-07-22T00:36:21.233Z,23.54
2016-07-22T00:37:21.262Z,23.62
2016-07-22T00:38:21.303Z,23.55
2016-07-22T00:39:21.326Z,23.51
2016-07-22T00:40:23.862Z,23.5
2016-07-22T00:41:23.561Z,23.48
2016-07-22T00:42:21.410Z,23.47
2016-07-22T00:43:21.444Z,23.46
2016-07-22T00:44:21.472Z,23.46
2016-07-22T00:45:21.503Z,23.58
2016-07-22T00:46:21.542Z,23.5
2016-07-22T00:47:22.273Z,23.48
2016-07-22T00:48:21.594Z,23.46
2016-07-22T00:49:21.636Z,23.51
2016-07-22T00:50:21.679Z,23.51
2016-07-22T00:51:21.682Z,23.48
2016-07-22T00:52:21.717Z,23.47
2016-07-22T00:53:22.456Z,23.5
2016-07-22T00:54:22.773Z,23.47
2016-07-22T00:55:21.805Z,23.48
2016-07-22T00:56:21.842Z,23.44
2016-07-22T00:57:21.867Z,23.44
2016-07-22T00:58:21.899Z,23.39
2016-07-22T00:59:22.637Z,23.31
2016-07-22T01:00:21.957Z,23.4
2016-07-22T01:01:22.697Z,23.4
2016-07-22T01:02:22.026Z,23.32
2016-07-22T01:03:22.769Z,23.4
2016-07-22T01:04:22.079Z,23.36
2016-07-22T01:05:22.168Z,23.31
2016-07-22T01:06:22.136Z,23.34
2016-07-22T01:07:22.173Z,23.36
2016-07-22T01:08:22.197Z,23.37
2016-07-22T01:09:22.936Z,23.31
2016-07-22T01:10:22.256Z,23.39
2016-07-22T01:11:22.283Z,23.25
2016-07-22T01:12:22.313Z,23.25
2016-07-22T01:13:22.350Z,23.18
2016-07-22T01:14:22.378Z,23.28
2016-07-22T01:15:22.407Z,23.25
2016-07-22T01:16:22.434Z,23.25
2016-07-22T01:17:22.462Z,23.27
2016-07-22T01:18:22.546Z,23.27
2016-07-22T01:19:22.548Z,23.25
2016-07-22T01:20:22.610Z,23.25
2016-07-22T01:21:22.587Z,23.25
2016-07-22T01:22:22.626Z,23.23
2016-07-22T01:23:22.642Z,23.23
2016-07-22T01:24:23.685Z,23.21
2016-07-22T01:25:22.721Z,23.27
2016-07-22T01:26:22.750Z,23.2
2016-07-22T01:27:22.767Z,23.21
2016-07-22T01:28:22.799Z,23.18
2016-07-22T01:29:22.824Z,23.21
2016-07-22T01:30:22.877Z,23.12
2016-07-22T01:31:22.994Z,23.13
2016-07-22T01:32:23.628Z,23.18
2016-07-22T01:33:22.944Z,23.09
2016-07-22T01:34:22.977Z,23.13
2016-07-22T01:35:23.004Z,23.08
2016-07-22T01:36:23.075Z,23.1
2016-07-22T01:37:23.866Z,23.08
2016-07-22T01:38:23.095Z,23.12
2016-07-22T01:39:23.124Z,23.09
2016-07-22T01:40:23.154Z,23.09
2016-07-22T01:41:23.178Z,23.08
2016-07-22T01:42:23.210Z,23.06
2016-07-22T01:43:23.242Z,23.02
2016-07-22T01:44:23.295Z,23.02
2016-07-22T01:45:23.302Z,22.94
2016-07-22T01:46:23.327Z,23.03
2016-07-22T01:47:23.361Z,22.98
2016-07-22T01:48:23.388Z,22.84
2016-07-22T01:49:23.418Z,22.83
2016-07-22T01:50:23.448Z,22.81
2016-07-22T01:51:23.480Z,22.8
2016-07-22T01:52:23.513Z,22.83
2016-07-22T01:53:25.808Z,22.84
2016-07-22T01:54:23.589Z,22.85
2016-07-22T01:55:23.596Z,22.75
2016-07-22T01:56:23.628Z,22.8
2016-07-22T01:57:23.656Z,22.7
2016-07-22T01:58:23.685Z,22.75
2016-07-22T01:59:24.438Z,22.63
2016-07-22T02:00:23.747Z,22.65
2016-07-22T02:01:23.795Z,22.68
2016-07-22T02:02:23.812Z,22.66
2016-07-22T02:03:23.839Z,22.6
2016-07-22T02:04:23.864Z,22.65
2016-07-22T02:05:24.291Z,22.63
2016-07-22T02:06:23.925Z,22.55
2016-07-22T02:07:25.378Z,22.62
2016-07-22T02:08:24.270Z,22.57
2016-07-22T02:09:24.020Z,22.59
2016-07-22T02:10:24.044Z,22.53
2016-07-22T02:11:24.070Z,22.53
2016-07-22T02:12:24.097Z,22.51
2016-07-22T02:13:24.852Z,22.5
2016-07-22T02:14:24.871Z,22.47
2016-07-22T02:15:24.189Z,22.39
2016-07-22T02:16:24.221Z,22.43
2016-07-22T02:17:24.258Z,22.38
2016-07-22T02:18:24.277Z,22.41
2016-07-22T02:19:24.304Z,22.47
2016-07-22T02:20:24.341Z,22.43
2016-07-22T02:21:24.363Z,22.48
2016-07-22T02:22:24.395Z,22.43
2016-07-22T02:23:24.624Z,22.47
2016-07-22T02:24:24.453Z,22.44
2016-07-22T02:25:24.481Z,22.48
2016-07-22T02:26:24.513Z,22.44
2016-07-22T02:27:25.250Z,22.47
2016-07-22T02:28:24.570Z,22.47
2016-07-22T02:29:24.601Z,22.44
2016-07-22T02:30:24.628Z,22.44
2016-07-22T02:31:24.655Z,22.36
2016-07-22T02:32:24.693Z,22.39
2016-07-22T02:33:25.435Z,22.44
2016-07-22T02:34:24.756Z,22.41
2016-07-22T02:35:24.779Z,22.45
2016-07-22T02:36:24.804Z,22.43
2016-07-22T02:37:24.835Z,22.41
2016-07-22T02:38:24.862Z,22.43
2016-07-22T02:39:24.891Z,22.43
2016-07-22T02:40:24.924Z,22.41
2016-07-22T02:41:24.961Z,22.44
2016-07-22T02:42:24.988Z,22.33
2016-07-22T02:43:25.716Z,22.41
2016-07-22T02:44:25.037Z,22.44
2016-07-22T02:45:25.075Z,22.29
2016-07-22T02:46:25.098Z,22.43
2016-07-22T02:47:25.137Z,22.38
2016-07-22T02:48:25.154Z,22.38
2016-07-22T02:49:25.899Z,22.47
2016-07-22T02:50:25.215Z,22.43
2016-07-22T02:51:25.263Z,22.44
2016-07-22T02:52:25.283Z,22.53
2016-07-22T02:53:26.013Z,22.47
2016-07-22T02:54:25.331Z,22.45
2016-07-22T02:55:26.070Z,22.43
2016-07-22T02:56:26.107Z,22.41
2016-07-22T02:57:25.420Z,22.38
2016-07-22T02:58:25.471Z,22.41
2016-07-22T02:59:25.480Z,22.39
2016-07-22T03:00:25.509Z,22.45
2016-07-22T03:01:25.549Z,22.45
2016-07-22T03:02:25.726Z,22.51
2016-07-22T03:03:25.595Z,22.5
2016-07-22T03:04:25.622Z,22.47
2016-07-22T03:05:25.677Z,22.5
2016-07-22T03:06:25.685Z,22.48
2016-07-22T03:07:25.710Z,22.44
2016-07-22T03:08:25.745Z,22.47
2016-07-22T03:09:27.191Z,22.47
2016-07-22T03:10:25.799Z,22.43
2016-07-22T03:11:25.827Z,22.48
2016-07-22T03:12:25.862Z,22.41
2016-07-22T03:13:25.899Z,22.47
2016-07-22T03:14:25.924Z,22.43
2016-07-22T03:15:25.946Z,22.38
2016-07-22T03:16:27.402Z,22.43
2016-07-22T03:17:26.007Z,22.35
2016-07-22T03:18:26.030Z,22.35
2016-07-22T03:19:26.063Z,22.41
2016-07-22T03:20:26.089Z,22.36
2016-07-22T03:21:26.122Z,22.28
2016-07-22T03:22:26.153Z,22.3
2016-07-22T03:23:26.897Z,22.39
2016-07-22T03:24:26.224Z,22.43
2016-07-22T03:25:26.237Z,22.41
2016-07-22T03:26:26.267Z,22.43
2016-07-22T03:27:26.300Z,22.38
2016-07-22T03:28:26.325Z,22.32
2016-07-22T03:29:27.071Z,22.38
2016-07-22T03:30:27.094Z,22.39
2016-07-22T03:31:26.432Z,22.39
2016-07-22T03:32:26.441Z,22.36
2016-07-22T03:33:26.470Z,22.33
2016-07-22T03:34:26.502Z,22.26
2016-07-22T03:35:26.529Z,22.36
2016-07-22T03:36:26.574Z,22.41
2016-07-22T03:37:26.587Z,22.41
2016-07-22T03:38:26.644Z,22.38
2016-07-22T03:39:26.651Z,22.3
2016-07-22T03:40:26.677Z,22.32
2016-07-22T03:41:26.712Z,22.28
2016-07-22T03:42:26.746Z,22.33
2016-07-22T03:43:26.764Z,22.25
2016-07-22T03:44:27.509Z,22.35
2016-07-22T03:45:26.822Z,22.29
2016-07-22T03:46:26.851Z,22.32
2016-07-22T03:47:27.589Z,22.32
2016-07-22T03:48:26.910Z,22.33
2016-07-22T03:49:26.937Z,22.32
2016-07-22T03:50:26.967Z,22.28
2016-07-22T03:51:26.995Z,22.3
2016-07-22T03:52:27.026Z,22.26
2016-07-22T03:53:27.777Z,22.26
2016-07-22T03:54:27.083Z,22.36
2016-07-22T03:55:27.119Z,22.36
2016-07-22T03:56:28.510Z,22.39
2016-07-22T03:57:27.178Z,22.47
2016-07-22T03:58:27.197Z,22.43
2016-07-22T03:59:27.236Z,22.44
2016-07-22T04:00:27.255Z,22.45
2016-07-22T04:01:27.287Z,22.44
2016-07-22T04:02:28.026Z,22.47
2016-07-22T04:03:27.358Z,22.43
2016-07-22T04:04:27.373Z,22.44
2016-07-22T04:05:27.402Z,22.44
2016-07-22T04:06:29.484Z,22.48
2016-07-22T04:07:27.464Z,22.45
2016-07-22T04:08:27.489Z,22.38
2016-07-22T04:09:27.521Z,22.48
2016-07-22T04:10:27.567Z,22.48
2016-07-22T04:11:27.580Z,22.53
2016-07-22T04:12:27.607Z,22.47
2016-07-22T04:13:27.636Z,22.47
2016-07-22T04:14:27.666Z,22.53
2016-07-22T04:15:27.697Z,22.54
2016-07-22T04:16:28.430Z,22.51
2016-07-22T04:17:27.755Z,22.54
2016-07-22T04:18:29.200Z,22.53
2016-07-22T04:19:27.823Z,22.55
2016-07-22T04:20:27.847Z,22.54
2016-07-22T04:21:27.870Z,22.53
2016-07-22T04:22:27.903Z,22.54
2016-07-22T04:23:27.928Z,22.57
2016-07-22T04:24:27.966Z,22.59
2016-07-22T04:25:27.989Z,22.68
2016-07-22T04:26:28.733Z,22.63
2016-07-22T04:27:28.050Z,22.63
2016-07-22T04:28:28.079Z,22.65
2016-07-22T04:29:28.119Z,22.68
2016-07-22T04:30:28.132Z,22.62
2016-07-22T04:31:28.170Z,22.68
2016-07-22T04:32:28.191Z,22.66
2016-07-22T04:33:28.223Z,22.66
2016-07-22T04:34:28.252Z,22.69
2016-07-22T04:35:28.993Z,22.62
2016-07-22T04:36:28.326Z,22.63
2016-07-22T04:37:28.350Z,22.6
2016-07-22T04:38:29.078Z,22.62
2016-07-22T04:39:28.395Z,22.7
2016-07-22T04:40:28.428Z,22.8
2016-07-22T04:41:29.163Z,22.73
2016-07-22T04:42:29.197Z,22.78
2016-07-22T04:43:28.524Z,22.75
2016-07-22T04:44:28.546Z,22.83
2016-07-22T04:45:28.578Z,22.76
2016-07-22T04:46:28.601Z,22.85
2016-07-22T04:47:28.632Z,22.8
2016-07-22T04:48:28.661Z,22.9
2016-07-22T04:49:28.687Z,22.85
2016-07-22T04:50:28.724Z,22.87
2016-07-22T04:51:28.746Z,22.84
2016-07-22T04:52:28.780Z,22.83
2016-07-22T04:53:28.826Z,22.85
2016-07-22T04:54:28.837Z,22.93
2016-07-22T04:55:28.868Z,22.85
2016-07-22T04:56:28.894Z,23.02
2016-07-22T04:57:29.640Z,22.93
2016-07-22T04:58:28.954Z,23
2016-07-22T04:59:28.987Z,22.99
2016-07-22T05:00:29.038Z,22.96
2016-07-22T05:01:29.754Z,22.99
2016-07-22T05:02:29.075Z,23.02
2016-07-22T05:03:29.108Z,23.05
2016-07-22T05:04:29.133Z,22.99
2016-07-22T05:05:29.161Z,23.05
2016-07-22T05:06:29.195Z,23.03
2016-07-22T05:07:29.239Z,23.05
2016-07-22T05:08:29.248Z,23.06
2016-07-22T05:09:29.280Z,23.08
2016-07-22T05:10:29.310Z,23.09
2016-07-22T05:11:29.336Z,23.05
2016-07-22T05:12:29.383Z,23.09
2016-07-22T05:13:29.398Z,23.1
2016-07-22T05:14:30.139Z,23.09
2016-07-22T05:15:29.459Z,23.21
2016-07-22T05:16:30.245Z,23.12
2016-07-22T05:17:29.518Z,23.1
2016-07-22T05:18:29.542Z,23.09
2016-07-22T05:19:29.579Z,23.13
2016-07-22T05:20:29.640Z,23.18
2016-07-22T05:21:29.634Z,23.15
2016-07-22T05:22:29.667Z,23.2
2016-07-22T05:23:29.694Z,23.23
2016-07-22T05:24:29.725Z,23.31
2016-07-22T05:25:30.464Z,23.18
2016-07-22T05:26:29.787Z,23.2
2016-07-22T05:27:29.817Z,23.23
2016-07-22T05:28:29.842Z,23.27
2016-07-22T05:29:29.872Z,23.28
2016-07-22T05:30:30.614Z,23.27
2016-07-22T05:31:29.931Z,23.17
2016-07-22T05:32:29.986Z,23.15
2016-07-22T05:33:29.995Z,23.13
2016-07-22T05:34:30.023Z,23.12
2016-07-22T05:35:30.049Z,23.05
2016-07-22T05:36:30.792Z,23.06
2016-07-22T05:37:30.109Z,23.08
2016-07-22T05:38:30.138Z,23.08
2016-07-22T05:39:30.165Z,23.03
2016-07-22T05:40:30.921Z,23.12
2016-07-22T05:41:30.225Z,23.1
2016-07-22T05:42:30.261Z,23.1
2016-07-22T05:43:30.287Z,23.17
2016-07-22T05:44:30.319Z,23.08
2016-07-22T05:45:30.560Z,23.1
2016-07-22T05:46:30.374Z,23.13
2016-07-22T05:47:30.413Z,23.03
2016-07-22T05:48:30.441Z,23.06
2016-07-22T05:49:30.487Z,23.06
2016-07-22T05:50:30.500Z,23.09
2016-07-22T05:51:30.761Z,23.06
2016-07-22T05:52:31.514Z,22.98
2016-07-22T05:53:30.610Z,22.98
2016-07-22T05:54:30.615Z,22.94
2016-07-22T05:55:30.641Z,23.05
2016-07-22T05:56:30.691Z,22.9
2016-07-22T05:57:30.706Z,23.03
2016-07-22T05:58:31.442Z,23.06
2016-07-22T05:59:32.902Z,22.98
2016-07-22T06:00:32.862Z,23
2016-07-22T06:01:30.825Z,23.08
2016-07-22T06:02:30.851Z,23.08
2016-07-22T06:03:30.878Z,23.03
2016-07-22T06:05:30.944Z,23.17
2016-07-22T06:06:30.969Z,23
2016-07-22T06:07:31.001Z,23.02
2016-07-22T06:08:31.030Z,23.02
2016-07-22T06:09:31.061Z,23.06
2016-07-22T06:10:31.090Z,23.06
2016-07-22T06:11:31.118Z,23.08
2016-07-22T06:12:31.861Z,23.03
2016-07-22T06:13:31.177Z,23.06
2016-07-22T06:14:31.916Z,23.09
2016-07-22T06:15:31.244Z,23.09
2016-07-22T06:16:31.265Z,23.09
2016-07-22T06:17:31.303Z,23.08
2016-07-22T06:18:31.327Z,23.08
2016-07-22T06:19:32.070Z,23.09
2016-07-22T06:20:31.386Z,23.1
2016-07-22T06:21:31.414Z,23.17
2016-07-22T06:22:32.154Z,23.2
2016-07-22T06:23:31.475Z,23.13
2016-07-22T06:24:32.212Z,23.18
2016-07-22T06:25:31.534Z,23.24
2016-07-22T06:26:31.571Z,23.24
2016-07-22T06:27:31.593Z,23.34
2016-07-22T06:28:31.629Z,23.28
2016-07-22T06:29:31.659Z,23.23
2016-07-22T06:30:31.681Z,23.23
2016-07-22T06:31:31.715Z,23.24
2016-07-22T06:32:31.742Z,23.25
2016-07-22T06:33:31.775Z,23.24
2016-07-22T06:34:31.805Z,23.23
2016-07-22T06:35:31.840Z,23.21
2016-07-22T06:36:31.864Z,23.23
2016-07-22T06:37:31.893Z,23.21
2016-07-22T06:38:31.921Z,23.24
2016-07-22T06:39:31.956Z,23.23
2016-07-22T06:40:31.981Z,23.32
2016-07-22T06:41:32.012Z,23.25
2016-07-22T06:42:32.040Z,23.34
2016-07-22T06:43:32.069Z,23.27
2016-07-22T06:44:32.102Z,23.27
2016-07-22T06:45:32.153Z,23.32
2016-07-22T06:46:32.164Z,23.36
2016-07-22T06:47:32.192Z,23.28
2016-07-22T06:48:32.219Z,23.13
2016-07-22T06:49:32.251Z,23.15
2016-07-22T06:50:32.279Z,23.2
2016-07-22T06:51:32.307Z,23.24
2016-07-22T06:52:32.342Z,23.2
2016-07-22T06:53:33.089Z,23.31
2016-07-22T06:54:32.400Z,23.27
2016-07-22T06:55:32.428Z,23.31
2016-07-22T06:56:33.167Z,23.39
2016-07-22T06:57:32.496Z,23.34
2016-07-22T06:58:32.519Z,23.37
2016-07-22T06:59:32.543Z,23.37
2016-07-22T07:00:32.582Z,23.31
2016-07-22T07:01:33.317Z,23.31
2016-07-22T07:02:32.673Z,23.32
2016-07-22T07:03:32.688Z,23.34
2016-07-22T07:04:32.701Z,23.32
2016-07-22T07:05:32.724Z,23.43
2016-07-22T07:06:32.757Z,23.44
2016-07-22T07:07:32.788Z,23.47
2016-07-22T07:08:33.066Z,23.56
2016-07-22T07:09:33.557Z,23.54
2016-07-22T07:10:32.896Z,23.63
2016-07-22T07:11:32.908Z,23.63
2016-07-22T07:12:32.936Z,23.62
2016-07-22T07:13:32.965Z,23.71
2016-07-22T07:14:32.993Z,23.69
2016-07-22T07:15:33.026Z,23.74
2016-07-22T07:16:33.763Z,23.71
2016-07-22T07:17:33.082Z,23.74
2016-07-22T07:18:33.832Z,23.78
2016-07-22T07:19:33.144Z,23.8
2016-07-22T07:20:33.194Z,23.76
2016-07-22T07:21:33.208Z,23.65
2016-07-22T07:22:33.235Z,23.77
2016-07-22T07:23:33.262Z,23.74
2016-07-22T07:24:33.297Z,23.77
2016-07-22T07:25:33.330Z,23.83
2016-07-22T07:26:33.350Z,23.92
2016-07-22T07:27:33.401Z,23.88
2016-07-22T07:28:33.417Z,23.92
2016-07-22T07:29:33.450Z,24.02
2016-07-22T07:30:33.482Z,23.88
2016-07-22T07:31:33.514Z,23.98
2016-07-22T07:32:33.537Z,24.1
2016-07-22T07:33:33.590Z,24.05
2016-07-22T07:34:33.609Z,24.02
2016-07-22T07:35:33.634Z,24.01
2016-07-22T07:36:33.666Z,24.13
2016-07-22T07:37:33.690Z,24.08
2016-07-22T07:38:33.725Z,23.98
2016-07-22T07:39:33.749Z,24.01
2016-07-22T07:40:33.783Z,23.98
2016-07-22T07:41:33.810Z,24.03
2016-07-22T07:42:33.840Z,24.08
2016-07-22T07:43:33.873Z,24.13
2016-07-22T07:44:34.611Z,24.17
2016-07-22T07:45:34.642Z,24.16
2016-07-22T07:46:34.676Z,24.17
2016-07-22T07:47:33.994Z,24.29
2016-07-22T07:48:34.028Z,24.28
2016-07-22T07:49:34.052Z,24.43
2016-07-22T07:50:34.091Z,24.5
2016-07-22T07:51:34.184Z,24.54
2016-07-22T07:52:34.859Z,24.65
2016-07-22T07:53:34.185Z,24.63
2016-07-22T07:54:34.208Z,24.65
2016-07-22T07:55:34.241Z,24.69
2016-07-22T07:56:34.267Z,24.73
2016-07-22T07:57:34.307Z,24.8
2016-07-22T07:58:34.333Z,24.8
2016-07-22T07:59:34.365Z,24.86
2016-07-22T08:00:34.393Z,24.89
2016-07-22T08:01:35.134Z,24.96
2016-07-22T08:02:34.452Z,24.99
2016-07-22T08:03:34.489Z,24.99
2016-07-22T08:04:34.520Z,25.03
2016-07-22T08:05:34.547Z,25.22
2016-07-22T08:06:34.591Z,25.22
2016-07-22T08:07:34.824Z,25.31
2016-07-22T08:08:34.639Z,25.32
2016-07-22T08:09:34.787Z,25.44
2016-07-22T08:10:34.701Z,25.43
2016-07-22T08:11:34.735Z,25.43
2016-07-22T08:12:35.484Z,25.47
2016-07-22T08:13:34.803Z,25.55
2016-07-22T08:14:34.834Z,25.54
2016-07-22T08:15:34.861Z,25.51
2016-07-22T08:16:34.908Z,25.59
2016-07-22T08:17:34.949Z,25.53
2016-07-22T08:18:34.960Z,25.65
2016-07-22T08:19:34.988Z,25.65
2016-07-22T08:20:35.018Z,25.68
2016-07-22T08:21:35.050Z,25.63
2016-07-22T08:22:35.080Z,25.62
2016-07-22T08:23:35.110Z,25.68
2016-07-22T08:24:35.157Z,25.72
2016-07-22T08:25:35.182Z,25.72
2016-07-22T08:26:35.209Z,25.78
2016-07-22T08:27:35.247Z,25.9
2016-07-22T08:28:35.980Z,25.9
2016-07-22T08:29:35.303Z,25.91
2016-07-22T08:30:35.336Z,25.9
2016-07-22T08:31:36.087Z,25.9
2016-07-22T08:32:36.107Z,26
2016-07-22T08:33:35.446Z,26.02
2016-07-22T08:34:35.459Z,26.02
2016-07-22T08:35:35.497Z,26.05
2016-07-22T08:36:35.524Z,26.16
2016-07-22T08:37:35.554Z,26.21
2016-07-22T08:38:36.298Z,26.26
2016-07-22T08:39:35.620Z,26.25
2016-07-22T08:40:35.654Z,26.33
2016-07-22T08:41:35.694Z,26.36
2016-07-22T08:42:36.425Z,26.37
2016-07-22T08:43:35.766Z,26.51
2016-07-22T08:44:35.781Z,26.45
2016-07-22T08:45:35.811Z,26.44
2016-07-22T08:46:35.843Z,26.47
2016-07-22T08:47:35.875Z,26.56
2016-07-22T08:48:35.907Z,26.56
2016-07-22T08:49:35.963Z,26.56
2016-07-22T08:50:35.971Z,26.63
2016-07-22T08:51:36.005Z,26.7
2016-07-22T08:52:36.038Z,26.77
2016-07-22T08:53:36.068Z,26.81
2016-07-22T08:54:36.811Z,26.89
2016-07-22T08:55:36.130Z,26.89
2016-07-22T08:56:36.163Z,26.89
2016-07-22T08:57:36.910Z,27.03
2016-07-22T08:58:36.247Z,27.03
2016-07-22T08:59:36.261Z,27.03
2016-07-22T09:00:37.009Z,27.15
2016-07-22T09:01:36.325Z,27.18
2016-07-22T09:02:37.077Z,27.17
2016-07-22T09:03:36.388Z,27.15
2016-07-22T09:04:37.135Z,27.22
2016-07-22T09:05:36.458Z,27.15
2016-07-22T09:06:36.489Z,27.17
2016-07-22T09:07:36.517Z,27.17
2016-07-22T09:08:36.569Z,27.22
2016-07-22T09:09:36.585Z,27.29
2016-07-22T09:10:36.617Z,27.3
2016-07-22T09:11:37.362Z,27.3
2016-07-22T09:12:36.681Z,27.27
2016-07-22T09:13:38.347Z,27.26
2016-07-22T09:14:37.483Z,27.27
2016-07-22T09:15:36.784Z,27.22
2016-07-22T09:16:38.232Z,27.3
2016-07-22T09:17:36.846Z,27.29
2016-07-22T09:18:37.633Z,27.37
2016-07-22T09:19:37.628Z,27.39
2016-07-22T09:20:36.946Z,27.51
2016-07-22T09:21:36.976Z,27.44
2016-07-22T09:22:37.017Z,27.52
2016-07-22T09:23:37.065Z,27.6
2016-07-22T09:24:37.074Z,27.58
2016-07-22T09:25:37.822Z,27.55
2016-07-22T09:26:37.970Z,27.6
2016-07-22T09:27:37.177Z,27.64
2016-07-22T09:28:38.342Z,27.7
2016-07-22T09:29:38.383Z,27.73
2016-07-22T09:30:37.272Z,27.73
2016-07-22T09:31:37.311Z,27.82
2016-07-22T09:32:37.373Z,27.83
2016-07-22T09:33:38.092Z,27.83
2016-07-22T09:34:37.402Z,27.87
2016-07-22T09:35:37.436Z,27.8
2016-07-22T09:36:38.180Z,27.93
2016-07-22T09:37:37.555Z,27.96
2016-07-22T09:38:37.701Z,28.01
2016-07-22T09:39:37.577Z,27.98
2016-07-22T09:40:37.652Z,28.12
2016-07-22T09:41:37.649Z,28.14
2016-07-22T09:42:38.680Z,28.08
2016-07-22T09:43:37.699Z,28.08
2016-07-22T09:44:37.734Z,28.2
2016-07-22T09:45:38.474Z,28.19
2016-07-22T09:46:38.508Z,28.14
2016-07-22T09:47:38.565Z,28.35
2016-07-22T09:48:38.605Z,28.32
2016-07-22T09:49:37.904Z,28.33
2016-07-22T09:50:38.688Z,28.33
2016-07-22T09:51:38.132Z,28.35
2016-07-22T09:52:38.763Z,28.49
2016-07-22T09:53:38.089Z,28.41
2016-07-22T09:54:38.773Z,28.49
2016-07-22T09:55:38.149Z,28.48
2016-07-22T09:56:38.154Z,28.51
2016-07-22T09:57:38.168Z,28.54
2016-07-22T09:58:38.201Z,28.51
2016-07-22T09:59:38.231Z,28.62
2016-07-22T10:00:38.268Z,28.54
2016-07-22T10:01:38.298Z,28.63
2016-07-22T10:02:39.042Z,28.69
2016-07-22T10:03:38.369Z,28.69
2016-07-22T10:04:38.406Z,28.72
2016-07-22T10:05:38.443Z,28.7
2016-07-22T10:06:38.468Z,28.74
2016-07-22T10:07:38.498Z,28.67
2016-07-22T10:08:38.552Z,28.82
2016-07-22T10:09:38.571Z,28.81
2016-07-22T10:10:38.604Z,28.76
2016-07-22T10:11:38.635Z,28.86
2016-07-22T10:12:38.671Z,28.88
2016-07-22T10:13:38.709Z,29.04
2016-07-22T10:14:38.752Z,28.98
2016-07-22T10:15:38.777Z,29.02
2016-07-22T10:16:38.804Z,29.01
2016-07-22T10:17:40.260Z,29.1
2016-07-22T10:18:38.888Z,29.05
2016-07-22T10:19:38.906Z,29.01
2016-07-22T10:20:38.941Z,28.98
2016-07-22T10:21:38.982Z,28.89
2016-07-22T10:22:39.862Z,28.91
2016-07-22T10:23:40.793Z,28.93
2016-07-22T10:24:39.077Z,28.88
2016-07-22T10:25:39.819Z,28.89
2016-07-22T10:26:39.143Z,28.88
2016-07-22T10:27:39.887Z,28.86
2016-07-22T10:28:39.212Z,28.91
2016-07-22T10:29:39.247Z,28.88
2016-07-22T10:30:39.277Z,28.96
2016-07-22T10:31:39.309Z,29.16
2016-07-22T10:32:42.006Z,29.12
2016-07-22T10:33:39.380Z,29.16
2016-07-22T10:34:39.412Z,29.16
2016-07-22T10:35:39.453Z,29.08
2016-07-22T10:36:39.480Z,29.19
2016-07-22T10:37:39.515Z,29.31
2016-07-22T10:38:39.550Z,29.32
2016-07-22T10:39:39.583Z,29.22
2016-07-22T10:40:39.627Z,29.29
2016-07-22T10:41:40.362Z,29.27
2016-07-22T10:42:39.683Z,29.34
2016-07-22T10:43:40.431Z,29.44
2016-07-22T10:44:40.464Z,29.39
2016-07-22T10:45:39.783Z,29.5
2016-07-22T10:46:40.543Z,29.5
2016-07-22T10:47:39.861Z,29.6
2016-07-22T10:48:40.599Z,29.5
2016-07-22T10:49:40.646Z,29.59
2016-07-22T10:50:39.958Z,29.68
2016-07-22T10:51:40.702Z,29.59
2016-07-22T10:52:40.026Z,29.65
2016-07-22T10:53:40.059Z,29.6
2016-07-22T10:54:40.094Z,29.68
2016-07-22T10:55:40.854Z,29.71
2016-07-22T10:56:40.871Z,29.66
2016-07-22T10:57:40.216Z,29.72
2016-07-22T10:58:40.237Z,29.75
2016-07-22T10:59:40.265Z,29.71
2016-07-22T11:00:40.300Z,29.68
2016-07-22T11:01:40.339Z,29.87
2016-07-22T11:02:40.366Z,29.84
2016-07-22T11:03:40.412Z,29.86
2016-07-22T11:04:41.158Z,29.87
2016-07-22T11:05:41.183Z,29.98
2016-07-22T11:06:40.525Z,29.95
2016-07-22T11:07:40.543Z,30
2016-07-22T11:08:40.577Z,29.91
2016-07-22T11:09:40.606Z,29.98
2016-07-22T11:10:40.650Z,29.95
2016-07-22T11:11:40.679Z,29.95
2016-07-22T11:12:40.719Z,30.03
2016-07-22T11:13:40.756Z,30.03
2016-07-22T11:14:40.802Z,30.12
2016-07-22T11:15:40.815Z,30.13
2016-07-22T11:16:40.850Z,30.09
2016-07-22T11:17:40.885Z,30.03
2016-07-22T11:18:40.922Z,30.08
2016-07-22T11:19:40.954Z,29.98
2016-07-22T11:20:41.006Z,30.09
2016-07-22T11:21:41.024Z,30.12
2016-07-22T11:22:41.056Z,30.02
2016-07-22T11:23:41.112Z,30.21
2016-07-22T11:24:41.129Z,30.13
2016-07-22T11:25:41.159Z,30.13
2016-07-22T11:26:41.193Z,30.12
2016-07-22T11:27:41.235Z,30.23
2016-07-22T11:28:41.265Z,30.16
2016-07-22T11:29:41.308Z,30.21
2016-07-22T11:30:41.334Z,30.21
2016-07-22T11:31:41.389Z,30.21
2016-07-22T11:32:41.407Z,30.12
2016-07-22T11:33:41.437Z,30.28
2016-07-22T11:34:42.182Z,30.23
2016-07-22T11:35:41.501Z,30.27
2016-07-22T11:36:41.539Z,30.27
2016-07-22T11:37:41.584Z,30.34
2016-07-22T11:38:41.611Z,30.4
2016-07-22T11:39:41.645Z,30.43
2016-07-22T11:40:41.700Z,30.46
2016-07-22T11:41:41.719Z,30.5
2016-07-22T11:42:41.746Z,30.43
2016-07-22T11:43:41.785Z,30.4
2016-07-22T11:44:41.821Z,30.19
2016-07-22T11:45:41.851Z,30.39
2016-07-22T11:46:41.895Z,30.43
2016-07-22T11:47:41.925Z,30.35
2016-07-22T11:48:42.721Z,30.34
2016-07-22T11:49:41.990Z,30.28
2016-07-22T11:50:42.028Z,30.35
2016-07-22T11:51:42.067Z,30.4
2016-07-22T11:52:42.098Z,30.5
2016-07-22T11:53:44.738Z,30.43
2016-07-22T11:54:42.172Z,30.37
2016-07-22T11:55:42.198Z,30.5
2016-07-22T11:56:42.946Z,30.37
2016-07-22T11:57:42.979Z,30.39
2016-07-22T11:58:42.303Z,30.3
2016-07-22T11:59:43.761Z,30.31
2016-07-22T12:00:42.370Z,30.43
2016-07-22T12:01:42.411Z,30.35
2016-07-22T12:02:42.455Z,30.34
2016-07-22T12:03:42.480Z,30.32
2016-07-22T12:04:42.513Z,30.34
2016-07-22T12:05:43.260Z,30.39
2016-07-22T12:06:42.587Z,30.44
2016-07-22T12:07:42.618Z,30.39
2016-07-22T12:08:42.650Z,30.47
2016-07-22T12:09:43.396Z,30.48
2016-07-22T12:10:42.721Z,30.51
2016-07-22T12:11:42.760Z,30.47
2016-07-22T12:12:42.792Z,30.47
2016-07-22T12:13:43.537Z,30.47
2016-07-22T12:14:42.874Z,30.39
2016-07-22T12:15:42.893Z,30.55
2016-07-22T12:16:42.932Z,30.54
2016-07-22T12:17:44.394Z,30.51
2016-07-22T12:18:42.998Z,30.57
2016-07-22T12:19:43.035Z,30.48
2016-07-22T12:20:43.066Z,30.53
2016-07-22T12:21:43.100Z,30.59
2016-07-22T12:22:43.850Z,30.53
2016-07-22T12:23:43.169Z,30.61
2016-07-22T12:24:43.920Z,30.73
2016-07-22T12:25:43.244Z,30.66
2016-07-22T12:26:43.279Z,30.59
2016-07-22T12:27:43.312Z,30.57
2016-07-22T12:28:44.066Z,30.43
2016-07-22T12:29:43.384Z,30.37
2016-07-22T12:30:43.452Z,30.47
2016-07-22T12:31:43.461Z,30.47
2016-07-22T12:32:43.489Z,30.51
2016-07-22T12:33:43.522Z,30.59
2016-07-22T12:34:44.263Z,30.5
2016-07-22T12:35:43.588Z,30.55
2016-07-22T12:36:43.626Z,30.55
2016-07-22T12:37:43.659Z,30.59
2016-07-22T12:38:43.698Z,30.54
2016-07-22T12:39:43.738Z,30.57
2016-07-22T12:40:43.762Z,30.63
2016-07-22T12:41:43.801Z,30.65
2016-07-22T12:42:43.839Z,30.68
2016-07-22T12:43:43.869Z,30.68
2016-07-22T12:44:44.628Z,30.68
2016-07-22T12:45:44.873Z,30.73
2016-07-22T12:46:43.975Z,30.69
2016-07-22T12:47:44.010Z,30.65
2016-07-22T12:48:44.754Z,30.61
2016-07-22T12:49:44.078Z,30.62
2016-07-22T12:50:44.112Z,30.51
2016-07-22T12:51:44.150Z,30.57
2016-07-22T12:52:44.896Z,30.59
2016-07-22T12:53:44.226Z,30.5
2016-07-22T12:54:44.260Z,30.61
2016-07-22T12:55:44.998Z,30.59
2016-07-22T12:56:45.036Z,30.62